Time;durP1;ratioP1;P1;durP2;ratioP2;P2;SDS_P1;SDS_P2;PMS_P1;PMS_P2;Temp;Humidity;BMP_temperature;BMP_pressure;BME280_temperature;BME280_humidity;BME280_pressure;Samples;Min_cycle;Max_cycle;Signal;HPM_P1;HPM_P2
2023/05/27 00:00:32;;;;;;;0.27;0.27;;;14.10;99.90;;;;;;5072662;28;20183;-80
2023/05/27 00:03:00;;;;;;;0.10;0.10;;;14.00;99.90;;;;;;5074511;28;20208;-80
2023/05/27 00:05:25;;;;;;;0.10;0.10;;;13.90;99.90;;;;;;5073950;28;20214;-80
2023/05/27 00:07:51;;;;;;;0.10;0.10;;;14.00;99.90;;;;;;5077244;28;20213;-81
2023/05/27 00:10:16;;;;;;;0.10;0.10;;;14.00;99.90;;;;;;5074303;28;20179;-80
2023/05/27 00:12:42;;;;;;;0.00;0.00;;;14.00;99.90;;;;;;5073853;28;20257;-80
2023/05/27 00:15:08;;;;;;;0.10;0.10;;;13.90;99.90;;;;;;5073418;28;20179;-80
2023/05/27 00:17:34;;;;;;;0.10;0.10;;;13.90;99.90;;;;;;5075097;28;20655;-80
2023/05/27 00:20:06;;;;;;;0.10;0.10;;;13.80;99.90;;;;;;5072510;28;20198;-80
2023/05/27 00:22:32;;;;;;;0.10;0.10;;;13.80;99.90;;;;;;5074006;28;20217;-80
2023/05/27 00:24:57;;;;;;;0.10;0.10;;;13.80;99.90;;;;;;5074256;28;20180;-80
2023/05/27 00:27:23;;;;;;;0.10;0.10;;;13.80;99.90;;;;;;5072769;28;20186;-80
2023/05/27 00:29:48;;;;;;;0.10;0.10;;;13.90;99.90;;;;;;5075115;28;20195;-80
2023/05/27 00:32:14;;;;;;;0.10;0.10;;;13.80;99.90;;;;;;5072431;28;20195;-80
2023/05/27 00:34:39;;;;;;;0.10;0.10;;;13.80;99.90;;;;;;5073843;28;20227;-81
2023/05/27 00:37:06;;;;;;;0.10;0.10;;;13.90;99.90;;;;;;5091443;28;20190;-80
2023/05/27 00:39:31;;;;;;;0.10;0.10;;;13.90;99.90;;;;;;5073265;28;20182;-80
2023/05/27 00:41:57;;;;;;;0.10;0.10;;;13.90;99.90;;;;;;5073096;28;20704;-81
2023/05/27 00:44:23;;;;;;;0.10;0.10;;;14.00;99.90;;;;;;5074681;28;20183;-80
2023/05/27 00:46:48;;;;;;;0.10;0.10;;;14.00;99.90;;;;;;5074951;28;20194;-80
2023/05/27 00:49:14;;;;;;;0.10;0.10;;;13.90;99.90;;;;;;5073728;28;20198;-80
2023/05/27 00:51:40;;;;;;;0.10;0.10;;;14.00;99.90;;;;;;5071817;28;20194;-80
2023/05/27 00:54:08;;;;;;;0.10;0.10;;;14.00;99.90;;;;;;5074387;28;20674;-80
2023/05/27 00:56:34;;;;;;;0.10;0.10;;;14.00;99.90;;;;;;5074411;28;20209;-81
2023/05/27 00:59:00;;;;;;;0.10;0.10;;;14.10;99.90;;;;;;5073375;28;20176;-80
2023/05/27 01:01:25;;;;;;;0.10;0.10;;;14.10;99.90;;;;;;5072262;28;20218;-80
2023/05/27 01:03:52;;;;;;;0.10;0.10;;;14.10;99.90;;;;;;5074537;28;20625;-80
2023/05/27 01:06:21;;;;;;;0.10;0.10;;;14.10;99.90;;;;;;5090090;28;20194;-80
2023/05/27 01:09:07;;;;;;;0.10;0.10;;;14.10;99.90;;;;;;5073386;28;20298;-80
2023/05/27 01:11:41;;;;;;;0.10;0.10;;;14.10;99.90;;;;;;5072730;28;20268;-80
2023/05/27 01:14:11;;;;;;;0.10;0.10;;;14.10;99.90;;;;;;5075329;28;20187;-80
2023/05/27 01:16:44;;;;;;;0.10;0.10;;;14.00;99.90;;;;;;5078093;28;21001;-80
2023/05/27 01:19:14;;;;;;;0.10;0.10;;;14.00;99.90;;;;;;5078188;28;20246;-80
2023/05/27 01:21:44;;;;;;;0.10;0.10;;;14.00;99.90;;;;;;5077296;28;20253;-80
2023/05/27 01:24:10;;;;;;;0.10;0.10;;;14.00;99.90;;;;;;5084708;28;20174;-80
2023/05/27 01:26:36;;;;;;;0.60;0.60;;;13.90;99.90;;;;;;5076697;28;20192;-80
2023/05/27 01:29:03;;;;;;;0.10;0.10;;;13.90;99.90;;;;;;5077714;28;20206;-80
2023/05/27 01:31:41;;;;;;;2.13;1.93;;;13.80;99.90;;;;;;5076713;28;20674;-80
2023/05/27 01:34:09;;;;;;;0.10;0.10;;;13.90;99.90;;;;;;5075101;28;20605;-80
2023/05/27 01:36:42;;;;;;;0.10;0.10;;;13.80;99.90;;;;;;5076718;28;20615;-80
2023/05/27 01:39:10;;;;;;;0.50;0.50;;;13.80;99.90;;;;;;5077328;28;20215;-80
2023/05/27 01:41:37;;;;;;;0.10;0.10;;;13.80;99.90;;;;;;5078062;28;20227;-80
2023/05/27 01:44:04;;;;;;;0.10;0.10;;;13.80;99.90;;;;;;5086295;28;20193;-80
2023/05/27 01:46:29;;;;;;;0.10;0.10;;;13.80;99.90;;;;;;5075763;28;20289;-80
2023/05/27 01:48:55;;;;;;;0.10;0.10;;;13.80;99.90;;;;;;5076835;28;20281;-80
2023/05/27 01:51:20;;;;;;;0.10;0.10;;;13.80;99.90;;;;;;5076419;28;20183;-80
2023/05/27 01:53:46;;;;;;;0.10;0.10;;;13.80;99.90;;;;;;5077033;28;20211;-80
2023/05/27 01:56:11;;;;;;;0.10;0.10;;;13.80;99.90;;;;;;5076638;28;21251;-80
2023/05/27 01:58:37;;;;;;;0.10;0.10;;;13.80;99.90;;;;;;5075708;28;20215;-80
2023/05/27 02:01:02;;;;;;;0.10;0.10;;;13.80;99.90;;;;;;5074422;28;20232;-80
2023/05/27 02:03:28;;;;;;;0.10;0.10;;;13.70;99.90;;;;;;5076351;28;20225;-80
2023/05/27 02:05:53;;;;;;;0.10;0.10;;;13.70;99.90;;;;;;5075618;28;20184;-80
2023/05/27 02:08:19;;;;;;;0.10;0.10;;;13.60;99.90;;;;;;5077782;28;20207;-80
2023/05/27 02:10:45;;;;;;;0.10;0.10;;;13.60;99.90;;;;;;5074698;28;20532;-80
2023/05/27 02:13:10;;;;;;;0.10;0.10;;;13.60;99.90;;;;;;5076803;28;20223;-79
2023/05/27 02:15:36;;;;;;;0.10;0.10;;;13.60;99.90;;;;;;5075389;28;20411;-80
2023/05/27 02:18:01;;;;;;;0.10;0.10;;;13.50;99.90;;;;;;5076795;28;20268;-81
2023/05/27 02:20:27;;;;;;;0.10;0.10;;;13.60;99.90;;;;;;5076740;28;20181;-81
2023/05/27 02:22:53;;;;;;;0.10;0.10;;;13.50;99.90;;;;;;5076827;28;20199;-80
2023/05/27 02:25:18;;;;;;;0.10;0.10;;;13.50;99.90;;;;;;5075435;28;20176;-80
2023/05/27 02:27:48;;;;;;;0.00;0.00;;;13.50;99.90;;;;;;5077876;28;20334;-80
2023/05/27 02:30:14;;;;;;;0.10;0.10;;;13.50;99.90;;;;;;5076405;28;20595;-80
2023/05/27 02:32:40;;;;;;;0.10;0.10;;;13.40;99.90;;;;;;5074093;28;21027;-81
2023/05/27 02:35:07;;;;;;;0.10;0.10;;;13.40;99.90;;;;;;5077340;28;20279;-81
2023/05/27 02:37:32;;;;;;;0.10;0.10;;;13.40;99.90;;;;;;5076654;28;20191;-80
2023/05/27 02:39:58;;;;;;;0.10;0.10;;;13.30;99.90;;;;;;5074916;28;20276;-81
2023/05/27 02:42:24;;;;;;;0.10;0.10;;;13.30;99.90;;;;;;5074971;28;20209;-80
2023/05/27 02:44:49;;;;;;;0.10;0.10;;;13.30;99.90;;;;;;5075658;28;20174;-80
2023/05/27 02:47:15;;;;;;;0.10;0.10;;;13.20;99.90;;;;;;5076101;28;20187;-80
2023/05/27 02:49:40;;;;;;;0.10;0.10;;;13.30;99.90;;;;;;5077093;28;20199;-80
2023/05/27 02:52:06;;;;;;;0.10;0.10;;;13.20;99.90;;;;;;5076403;28;20212;-80
2023/05/27 02:54:32;;;;;;;0.10;0.10;;;13.10;99.90;;;;;;5076755;28;20197;-80
2023/05/27 02:56:57;;;;;;;0.10;0.10;;;13.10;99.90;;;;;;5073814;28;20194;-81
2023/05/27 02:59:23;;;;;;;0.10;0.10;;;13.10;99.90;;;;;;5075362;28;20193;-80
2023/05/27 03:01:48;;;;;;;0.10;0.10;;;13.00;99.90;;;;;;5073556;28;20205;-80
2023/05/27 03:04:14;;;;;;;0.10;0.10;;;13.00;99.90;;;;;;5075260;28;20196;-80
2023/05/27 03:06:40;;;;;;;0.10;0.10;;;13.00;99.90;;;;;;5076398;28;20223;-80
2023/05/27 03:09:07;;;;;;;0.10;0.10;;;13.00;99.90;;;;;;5073901;28;20211;-80
2023/05/27 03:11:32;;;;;;;0.10;0.10;;;12.90;99.90;;;;;;5073969;28;20683;-81
2023/05/27 03:13:58;;;;;;;0.10;0.10;;;12.90;99.90;;;;;;5075685;28;20214;-80
2023/05/27 03:16:24;;;;;;;0.10;0.10;;;12.90;99.90;;;;;;5073463;28;21215;-81
2023/05/27 03:18:50;;;;;;;0.10;0.10;;;12.90;99.90;;;;;;5074069;28;20173;-80
2023/05/27 03:21:15;;;;;;;0.10;0.10;;;12.80;99.90;;;;;;5076590;28;20188;-80
2023/05/27 03:23:41;;;;;;;0.10;0.10;;;12.80;99.90;;;;;;5072861;28;20207;-80
2023/05/27 03:26:06;;;;;;;0.10;0.10;;;12.80;99.90;;;;;;5105123;22;20252;-80
2023/05/27 03:28:32;;;;;;;0.10;0.10;;;12.70;99.90;;;;;;5051361;28;20587;-79
2023/05/27 03:30:57;;;;;;;0.10;0.10;;;12.70;99.90;;;;;;5052151;28;20182;-80
2023/05/27 03:33:23;;;;;;;0.10;0.10;;;12.70;99.90;;;;;;5054178;28;20228;-80
2023/05/27 03:35:49;;;;;;;0.10;0.10;;;12.70;99.90;;;;;;5054305;28;20554;-79
2023/05/27 03:38:15;;;;;;;0.10;0.10;;;12.70;99.90;;;;;;5054334;28;20191;-80
2023/05/27 03:40:40;;;;;;;0.10;0.10;;;12.70;99.90;;;;;;5050792;28;20183;-80
2023/05/27 03:43:06;;;;;;;0.10;0.10;;;12.60;99.90;;;;;;5052787;28;20211;-79
2023/05/27 03:45:31;;;;;;;0.10;0.10;;;12.80;99.90;;;;;;5050813;28;20218;-79
2023/05/27 03:47:57;;;;;;;0.10;0.10;;;12.90;99.90;;;;;;5052358;28;20186;-80
2023/05/27 03:50:22;;;;;;;0.10;0.10;;;13.10;99.90;;;;;;5053035;28;20177;-79
2023/05/27 03:52:48;;;;;;;0.10;0.10;;;13.20;99.90;;;;;;5051956;28;20205;-79
2023/05/27 03:55:13;;;;;;;0.10;0.10;;;13.40;99.90;;;;;;5052852;28;20190;-80
2023/05/27 03:57:39;;;;;;;0.10;0.10;;;13.50;99.90;;;;;;5052183;28;20223;-80
2023/05/27 04:00:08;;;;;;;0.10;0.10;;;13.80;99.90;;;;;;5054088;28;20194;-80
2023/05/27 04:02:33;;;;;;;0.10;0.10;;;13.80;99.90;;;;;;5048741;28;20215;-80
2023/05/27 04:05:00;;;;;;;0.10;0.10;;;13.90;99.90;;;;;;5053837;28;20626;-79
2023/05/27 04:07:26;;;;;;;0.10;0.10;;;14.20;99.90;;;;;;5051516;28;20196;-80
2023/05/27 04:09:52;;;;;;;0.10;0.10;;;14.40;99.90;;;;;;5052040;28;20205;-80
2023/05/27 04:12:18;;;;;;;0.10;0.10;;;14.40;99.90;;;;;;5049839;28;20593;-80
2023/05/27 04:14:43;;;;;;;0.10;0.10;;;14.40;99.90;;;;;;5051040;28;20188;-80
2023/05/27 04:17:09;;;;;;;0.10;0.10;;;14.30;99.90;;;;;;5050427;28;20215;-80
2023/05/27 04:19:36;;;;;;;0.10;0.10;;;14.20;99.90;;;;;;5051787;28;20225;-80
2023/05/27 04:22:01;;;;;;;0.10;0.10;;;14.00;99.90;;;;;;5048917;28;20202;-80
2023/05/27 04:24:27;;;;;;;0.10;0.10;;;14.10;99.90;;;;;;5053165;28;20555;-79
2023/05/27 04:26:53;;;;;;;0.10;0.10;;;14.00;99.90;;;;;;5050531;28;20242;-80
2023/05/27 04:29:18;;;;;;;0.10;0.10;;;14.00;99.90;;;;;;5050704;28;20199;-80
2023/05/27 04:31:44;;;;;;;0.10;0.10;;;14.00;99.90;;;;;;5050893;28;20184;-80
2023/05/27 04:34:10;;;;;;;0.10;0.10;;;13.90;99.90;;;;;;5050121;28;20263;-79
2023/05/27 04:36:36;;;;;;;0.10;0.10;;;13.90;99.90;;;;;;5113847;22;20328;-79
2023/05/27 04:39:02;;;;;;;0.10;0.10;;;13.90;99.90;;;;;;5072221;28;20288;-78
2023/05/27 04:41:28;;;;;;;0.10;0.10;;;13.90;99.90;;;;;;5057348;28;20199;-79
2023/05/27 04:43:54;;;;;;;0.10;0.10;;;13.90;99.90;;;;;;5074405;28;21130;-79
2023/05/27 04:46:20;;;;;;;0.10;0.10;;;13.90;99.90;;;;;;5073329;28;20188;-79
2023/05/27 04:48:46;;;;;;;0.10;0.10;;;14.00;99.90;;;;;;5071113;28;20685;-79
2023/05/27 04:51:15;;;;;;;0.10;0.10;;;14.10;99.90;;;;;;5073796;28;20190;-79
2023/05/27 04:53:41;;;;;;;0.10;0.10;;;14.10;99.90;;;;;;5068804;28;20259;-78
2023/05/27 04:56:08;;;;;;;0.10;0.10;;;14.00;99.90;;;;;;5072145;28;20727;-79
2023/05/27 04:58:34;;;;;;;0.10;0.10;;;14.10;99.90;;;;;;5069558;28;20285;-79
2023/05/27 05:00:59;;;;;;;0.10;0.10;;;14.10;99.90;;;;;;5072197;28;20288;-79
2023/05/27 05:03:39;;;;;;;0.10;0.10;;;14.40;99.90;;;;;;5072519;28;21177;-78
2023/05/27 05:06:05;;;;;;;0.10;0.10;;;14.30;99.90;;;;;;5072521;28;20171;-79
2023/05/27 05:08:31;;;;;;;0.10;0.10;;;14.30;99.90;;;;;;5067835;28;20204;-78
2023/05/27 05:10:56;;;;;;;0.10;0.10;;;14.40;99.90;;;;;;5073421;28;20670;-79
2023/05/27 05:13:22;;;;;;;0.10;0.10;;;14.50;99.90;;;;;;5066401;28;20209;-78
2023/05/27 05:15:48;;;;;;;0.10;0.10;;;14.60;99.90;;;;;;5069844;28;20262;-77
2023/05/27 05:18:13;;;;;;;0.10;0.10;;;14.60;99.90;;;;;;5070282;28;20668;-79
2023/05/27 05:20:39;;;;;;;0.10;0.10;;;14.60;99.90;;;;;;5068384;28;20212;-77
2023/05/27 05:23:06;;;;;;;0.10;0.10;;;14.70;99.90;;;;;;5066838;28;20234;-78
2023/05/27 05:25:37;;;;;;;0.10;0.10;;;14.80;99.90;;;;;;5067860;28;20713;-77
2023/05/27 05:28:05;;;;;;;0.10;0.10;;;14.90;99.90;;;;;;5067644;28;20188;-80
2023/05/27 05:30:31;;;;;;;0.10;0.10;;;14.90;99.90;;;;;;5069866;28;20222;-79
2023/05/27 05:32:57;;;;;;;0.10;0.10;;;14.90;99.90;;;;;;5073784;28;20195;-80
2023/05/27 05:35:23;;;;;;;0.10;0.10;;;15.00;99.90;;;;;;5075416;28;20271;-79
2023/05/27 05:37:49;;;;;;;0.10;0.10;;;15.00;99.90;;;;;;5076150;28;20208;-79
2023/05/27 05:40:15;;;;;;;0.10;0.10;;;15.10;99.90;;;;;;5075415;28;20215;-79
2023/05/27 05:42:40;;;;;;;0.10;0.10;;;15.20;99.90;;;;;;5074848;28;20206;-79
2023/05/27 05:45:06;;;;;;;0.10;0.10;;;15.20;99.90;;;;;;5079934;28;20381;-79
2023/05/27 05:47:32;;;;;;;0.10;0.10;;;15.20;99.90;;;;;;5082576;28;20202;-79
2023/05/27 05:49:58;;;;;;;0.10;0.10;;;15.20;99.90;;;;;;5081693;28;20193;-79
2023/05/27 05:52:23;;;;;;;0.10;0.10;;;15.20;99.90;;;;;;5079579;28;20212;-79
2023/05/27 05:54:49;;;;;;;0.10;0.10;;;15.20;99.90;;;;;;5077448;28;20203;-79
2023/05/27 05:57:15;;;;;;;0.10;0.10;;;15.30;99.90;;;;;;5077552;28;20184;-79
2023/05/27 05:59:41;;;;;;;0.10;0.10;;;15.40;99.90;;;;;;5078382;28;20193;-79
2023/05/27 06:02:06;;;;;;;0.10;0.10;;;15.50;99.90;;;;;;5080040;28;20204;-79
2023/05/27 06:04:32;;;;;;;0.10;0.10;;;15.50;99.90;;;;;;5083274;28;20220;-79
2023/05/27 06:06:57;;;;;;;0.10;0.10;;;15.60;99.90;;;;;;5077243;28;20216;-76
2023/05/27 06:09:23;;;;;;;0.10;0.10;;;15.70;99.90;;;;;;5073502;28;20210;-77
2023/05/27 06:11:48;;;;;;;0.10;0.10;;;15.70;99.90;;;;;;5070898;28;20264;-77
2023/05/27 06:14:14;;;;;;;0.10;0.10;;;15.80;99.90;;;;;;5073309;28;20641;-79
2023/05/27 06:16:40;;;;;;;0.10;0.10;;;16.00;99.90;;;;;;5073118;28;20186;-79
2023/05/27 06:19:06;;;;;;;0.10;0.10;;;16.00;99.90;;;;;;5075505;28;20194;-79
2023/05/27 06:21:32;;;;;;;0.10;0.10;;;15.80;99.90;;;;;;5072882;28;20214;-79
2023/05/27 06:23:59;;;;;;;0.10;0.10;;;16.10;99.90;;;;;;5074517;28;20974;-78
2023/05/27 06:26:25;;;;;;;0.10;0.10;;;16.10;99.90;;;;;;5073135;28;20569;-79
2023/05/27 06:28:51;;;;;;;0.10;0.10;;;16.30;99.90;;;;;;5072249;28;20846;-79
2023/05/27 06:31:16;;;;;;;0.10;0.10;;;16.00;99.90;;;;;;5073413;28;20185;-78
2023/05/27 06:33:42;;;;;;;0.10;0.10;;;16.10;99.90;;;;;;5073260;28;20295;-79
2023/05/27 06:36:07;;;;;;;0.10;0.10;;;15.90;99.90;;;;;;5071440;28;20223;-79
2023/05/27 06:38:33;;;;;;;0.10;0.10;;;16.10;99.90;;;;;;5073682;28;20197;-79
2023/05/27 06:40:58;;;;;;;0.10;0.10;;;16.40;99.90;;;;;;5072995;28;20233;-79
2023/05/27 06:43:24;;;;;;;0.10;0.10;;;16.00;99.90;;;;;;5071445;28;20649;-79
2023/05/27 06:45:49;;;;;;;0.10;0.10;;;16.40;99.90;;;;;;5071807;28;20177;-78
2023/05/27 06:48:15;;;;;;;0.87;0.87;;;16.60;99.90;;;;;;5072071;28;20189;-79
2023/05/27 06:50:40;;;;;;;0.10;0.10;;;16.50;99.90;;;;;;5071054;28;20641;-79
2023/05/27 06:53:06;;;;;;;0.10;0.10;;;16.50;99.90;;;;;;5067773;28;20205;-78
2023/05/27 06:55:31;;;;;;;0.10;0.10;;;16.60;99.90;;;;;;5072592;28;20254;-79
2023/05/27 06:57:57;;;;;;;0.10;0.10;;;16.40;99.90;;;;;;5072549;28;20181;-78
2023/05/27 07:03:03;;;;;;;0.10;0.10;;;16.60;99.90;;;;;;5072442;28;20224;-82
2023/05/27 07:05:29;;;;;;;0.10;0.10;;;16.30;99.90;;;;;;5071983;28;20306;-82
2023/05/27 07:07:54;;;;;;;0.10;0.10;;;16.60;99.90;;;;;;5073868;28;20585;-82
2023/05/27 07:10:20;;;;;;;0.10;0.10;;;16.90;99.90;;;;;;5071528;28;20255;-82
2023/05/27 07:12:45;;;;;;;0.10;0.10;;;16.80;99.90;;;;;;5073512;28;20208;-82
2023/05/27 07:15:11;;;;;;;0.10;0.10;;;16.70;99.90;;;;;;5073595;28;20188;-82
2023/05/27 07:17:36;;;;;;;0.10;0.10;;;16.80;99.90;;;;;;5074093;28;20184;-82
2023/05/27 07:20:02;;;;;;;0.10;0.10;;;16.90;99.90;;;;;;5076133;28;20188;-82
2023/05/27 07:22:28;;;;;;;0.10;0.10;;;16.70;99.90;;;;;;5075048;28;20204;-82
2023/05/27 07:24:54;;;;;;;0.10;0.10;;;17.00;99.90;;;;;;5078785;28;20184;-82
2023/05/27 07:27:20;;;;;;;0.10;0.10;;;17.20;99.90;;;;;;5079989;28;20265;-82
2023/05/27 07:29:45;;;;;;;0.10;0.10;;;17.40;99.90;;;;;;5078017;28;20298;-82
2023/05/27 07:32:11;;;;;;;0.10;0.10;;;17.00;99.90;;;;;;5077789;28;20208;-81
2023/05/27 07:34:36;;;;;;;0.10;0.10;;;17.60;99.90;;;;;;5076972;28;20196;-81
2023/05/27 07:37:02;;;;;;;0.10;0.10;;;17.60;99.90;;;;;;5073256;28;20287;-82
2023/05/27 07:39:27;;;;;;;0.10;0.10;;;17.30;99.90;;;;;;5071424;28;20673;-82
2023/05/27 07:41:53;;;;;;;0.10;0.10;;;17.40;99.90;;;;;;5069312;28;20199;-82
2023/05/27 07:44:19;;;;;;;0.10;0.10;;;17.60;99.90;;;;;;5072272;28;20187;-82
2023/05/27 07:46:44;;;;;;;0.10;0.10;;;17.60;99.90;;;;;;5073061;28;20733;-82
2023/05/27 07:49:10;;;;;;;0.10;0.10;;;17.60;99.90;;;;;;5074580;28;20200;-82
2023/05/27 07:51:36;;;;;;;0.10;0.10;;;17.80;99.90;;;;;;5072036;28;20280;-82
2023/05/27 07:54:01;;;;;;;0.30;0.30;;;17.60;99.90;;;;;;5073196;28;20580;-82
2023/05/27 07:56:27;;;;;;;0.10;0.10;;;17.80;99.90;;;;;;5073772;28;20264;-81
2023/05/27 07:58:52;;;;;;;0.10;0.10;;;18.20;99.90;;;;;;5075261;28;20200;-82
2023/05/27 08:01:18;;;;;;;0.10;0.10;;;18.40;99.90;;;;;;5070542;28;20196;-82
2023/05/27 08:03:44;;;;;;;0.10;0.10;;;18.70;99.90;;;;;;5073962;28;20615;-82
2023/05/27 08:06:09;;;;;;;0.10;0.10;;;18.50;99.90;;;;;;5074245;28;20187;-82
2023/05/27 08:08:35;;;;;;;0.10;0.10;;;18.00;99.90;;;;;;5074708;28;20240;-82
2023/05/27 08:11:01;;;;;;;0.10;0.10;;;18.20;99.90;;;;;;5072534;28;20197;-81
2023/05/27 08:13:27;;;;;;;0.10;0.10;;;18.50;99.90;;;;;;5075829;28;20269;-82
2023/05/27 08:15:52;;;;;;;0.10;0.10;;;18.10;99.90;;;;;;5072037;28;20184;-82
2023/05/27 08:18:18;;;;;;;0.10;0.10;;;18.10;99.90;;;;;;5071438;28;20185;-82
2023/05/27 08:20:43;;;;;;;0.10;0.10;;;18.60;99.90;;;;;;5072763;28;20214;-82
2023/05/27 08:23:09;;;;;;;0.10;0.10;;;19.10;99.90;;;;;;5073104;28;20228;-82
2023/05/27 08:25:35;;;;;;;0.10;0.10;;;19.20;99.90;;;;;;5074131;28;20184;-82
2023/05/27 08:28:03;;;;;;;0.10;0.10;;;18.90;99.90;;;;;;5072296;28;20180;-81
2023/05/27 08:30:29;;;;;;;1.53;1.43;;;18.80;99.90;;;;;;5089330;28;20209;-82
2023/05/27 08:32:58;;;;;;;0.10;0.10;;;18.90;99.90;;;;;;5071495;28;20256;-82
2023/05/27 08:35:24;;;;;;;0.10;0.10;;;18.30;99.90;;;;;;5073970;28;20176;-82
2023/05/27 08:37:50;;;;;;;0.10;0.10;;;18.30;99.90;;;;;;5072287;28;20191;-84
2023/05/27 08:40:18;;;;;;;7.93;5.97;;;18.50;99.90;;;;;;5068511;28;20235;-84
2023/05/27 08:42:44;;;;;;;0.10;0.10;;;18.70;99.90;;;;;;5087723;28;20201;-83
2023/05/27 08:45:10;;;;;;;0.10;0.10;;;18.50;99.90;;;;;;5070236;28;20262;-83
2023/05/27 08:47:38;;;;;;;0.10;0.10;;;18.60;99.90;;;;;;5064377;28;20244;-82
2023/05/27 08:50:04;;;;;;;0.10;0.10;;;18.50;99.90;;;;;;5069100;28;20203;-82
2023/05/27 08:52:30;;;;;;;0.10;0.10;;;18.70;99.90;;;;;;5068089;28;20202;-81
2023/05/27 08:55:00;;;;;;;0.10;0.10;;;18.80;99.90;;;;;;5069558;28;20187;-82
2023/05/27 08:57:29;;;;;;;0.10;0.10;;;19.20;99.90;;;;;;5070543;28;20203;-82
2023/05/27 08:59:55;;;;;;;0.10;0.10;;;19.50;99.90;;;;;;5070067;28;20189;-82
2023/05/27 09:02:21;;;;;;;0.10;0.10;;;19.20;99.90;;;;;;5071763;28;21003;-82
2023/05/27 09:04:48;;;;;;;0.10;0.10;;;19.10;99.90;;;;;;5068479;28;20184;-82
2023/05/27 09:07:13;;;;;;;0.10;0.10;;;19.10;99.90;;;;;;5068331;28;21260;-82
2023/05/27 09:09:40;;;;;;;0.10;0.10;;;19.60;99.90;;;;;;5069110;28;20357;-82
2023/05/27 09:12:08;;;;;;;0.10;0.10;;;19.70;99.90;;;;;;5049967;28;20291;-82
2023/05/27 09:14:37;;;;;;;0.10;0.10;;;19.80;99.90;;;;;;5072984;28;20629;-81
2023/05/27 09:17:07;;;;;;;0.10;0.10;;;19.80;99.90;;;;;;5074851;28;20176;-82
2023/05/27 09:19:33;;;;;;;0.10;0.10;;;20.40;99.90;;;;;;5073336;28;20191;-81
2023/05/27 09:21:58;;;;;;;0.10;0.10;;;20.90;99.90;;;;;;5071023;28;20205;-82
2023/05/27 09:24:24;;;;;;;0.10;0.10;;;21.20;99.90;;;;;;5071779;28;20212;-82
2023/05/27 09:26:54;;;;;;;0.10;0.10;;;20.90;99.90;;;;;;5069642;28;20192;-82
2023/05/27 09:29:23;;;;;;;0.10;0.10;;;20.70;99.90;;;;;;5064004;28;20205;-81
2023/05/27 09:31:48;;;;;;;0.10;0.10;;;20.60;99.90;;;;;;5069915;28;21839;-82
2023/05/27 09:34:15;;;;;;;0.10;0.10;;;20.40;99.90;;;;;;5071828;28;20185;-82
2023/05/27 09:36:46;;;;;;;0.10;0.10;;;20.80;99.90;;;;;;5076070;28;20186;-82
2023/05/27 09:39:15;;;;;;;0.10;0.10;;;21.00;99.90;;;;;;5073626;28;20277;-82
2023/05/27 09:41:42;;;;;;;0.10;0.10;;;20.50;99.90;;;;;;5074705;28;20235;-82
2023/05/27 09:44:09;;;;;;;0.10;0.10;;;20.60;99.90;;;;;;5073001;28;20193;-82
2023/05/27 09:46:35;;;;;;;0.10;0.10;;;20.90;99.90;;;;;;5091234;28;20183;-82
2023/05/27 09:49:04;;;;;;;0.10;0.10;;;20.80;99.90;;;;;;5077731;28;20207;-82
2023/05/27 09:51:32;;;;;;;0.10;0.10;;;20.80;99.90;;;;;;5074084;28;20188;-81
2023/05/27 09:53:58;;;;;;;0.10;0.10;;;20.30;99.90;;;;;;5076109;28;20193;-82
2023/05/27 09:56:27;;;;;;;0.10;0.10;;;20.00;99.90;;;;;;5075934;28;20184;-81
2023/05/27 09:58:57;;;;;;;0.10;0.10;;;20.60;99.90;;;;;;5073834;28;20196;-82
2023/05/27 10:01:28;;;;;;;0.10;0.10;;;20.50;99.90;;;;;;5071449;28;20203;-82
2023/05/27 10:03:54;;;;;;;0.10;0.10;;;20.80;99.90;;;;;;5071801;28;20208;-82
2023/05/27 10:06:21;;;;;;;0.10;0.10;;;20.30;99.90;;;;;;5074784;28;20177;-82
2023/05/27 10:08:47;;;;;;;0.10;0.10;;;20.50;99.90;;;;;;5072374;28;20211;-82
2023/05/27 10:11:13;;;;;;;0.10;0.10;;;20.30;99.90;;;;;;5074268;28;20172;-82
2023/05/27 10:13:39;;;;;;;0.10;0.10;;;20.30;99.90;;;;;;5074227;28;20212;-82
2023/05/27 10:16:05;;;;;;;0.10;0.10;;;20.70;99.90;;;;;;5072852;28;20185;-82
2023/05/27 10:18:33;;;;;;;0.10;0.10;;;21.00;99.90;;;;;;5081283;28;20185;-82
2023/05/27 10:21:03;;;;;;;0.10;0.10;;;20.90;99.90;;;;;;5070481;28;20191;-82
2023/05/27 10:23:30;;;;;;;0.10;0.10;;;20.50;99.90;;;;;;5071721;28;20354;-82
2023/05/27 10:26:01;;;;;;;0.10;0.10;;;20.60;99.90;;;;;;5074116;28;20229;-82
2023/05/27 10:28:32;;;;;;;0.10;0.10;;;20.90;99.90;;;;;;5074103;28;20349;-82
2023/05/27 10:31:14;;;;;;;0.10;0.10;;;20.60;99.90;;;;;;5072500;28;20215;-82
2023/05/27 10:33:43;;;;;;;0.10;0.10;;;21.10;99.90;;;;;;5074930;28;20201;-81
2023/05/27 10:36:13;;;;;;;0.10;0.10;;;20.80;99.90;;;;;;5094897;28;20173;-81
2023/05/27 10:38:42;;;;;;;0.10;0.10;;;20.90;99.90;;;;;;5072699;28;20253;-82
2023/05/27 10:41:08;;;;;;;0.10;0.10;;;21.40;99.90;;;;;;5075107;28;20193;-82
2023/05/27 10:43:34;;;;;;;0.23;0.23;;;21.70;99.90;;;;;;5072831;28;20222;-82
2023/05/27 10:46:13;;;;;;;0.10;0.10;;;22.20;99.90;;;;;;5073009;28;20271;-82
2023/05/27 10:48:41;;;;;;;0.10;0.10;;;21.90;99.90;;;;;;5072747;28;20599;-82
2023/05/27 10:51:07;;;;;;;0.10;0.10;;;21.20;99.90;;;;;;5069818;28;20185;-82
2023/05/27 10:53:35;;;;;;;0.60;0.60;;;21.60;99.90;;;;;;5067014;28;20701;-82
2023/05/27 10:56:01;;;;;;;0.20;0.20;;;21.60;99.90;;;;;;5081795;28;20918;-82
2023/05/27 10:58:28;;;;;;;0.10;0.10;;;21.70;99.90;;;;;;5071556;28;20213;-81
2023/05/27 11:00:56;;;;;;;0.10;0.10;;;21.60;99.90;;;;;;5072790;28;20190;-82
2023/05/27 11:03:28;;;;;;;0.10;0.10;;;21.90;99.90;;;;;;5072963;28;20209;-82
2023/05/27 11:05:58;;;;;;;0.10;0.10;;;21.80;99.90;;;;;;5071515;28;20715;-81
2023/05/27 11:08:24;;;;;;;0.10;0.10;;;21.80;99.90;;;;;;5071349;28;20192;-82
2023/05/27 11:10:50;;;;;;;0.10;0.10;;;22.00;99.90;;;;;;5071990;28;20188;-82
2023/05/27 11:13:15;;;;;;;0.10;0.10;;;22.20;99.90;;;;;;5074082;28;20201;-82
2023/05/27 11:15:44;;;;;;;0.10;0.10;;;22.30;99.90;;;;;;5073026;28;20672;-82
2023/05/27 11:18:09;;;;;;;0.10;0.10;;;22.30;99.90;;;;;;5074227;28;20181;-82
2023/05/27 11:20:38;;;;;;;0.10;0.10;;;22.00;99.90;;;;;;5073472;28;20580;-82
2023/05/27 11:23:04;;;;;;;0.10;0.10;;;22.20;99.90;;;;;;5081667;28;20248;-82
2023/05/27 11:25:41;;;;;;;0.10;0.10;;;22.00;99.90;;;;;;5072470;28;20184;-82
2023/05/27 11:28:14;;;;;;;0.10;0.10;;;21.60;99.90;;;;;;5074723;28;20181;-82
2023/05/27 11:30:40;;;;;;;0.10;0.10;;;22.00;99.90;;;;;;5076481;28;20636;-82
2023/05/27 11:33:06;;;;;;;0.10;0.10;;;22.00;99.90;;;;;;5074784;28;20208;-82
2023/05/27 11:35:33;;;;;;;0.10;0.10;;;22.20;99.90;;;;;;5073930;28;20188;-82
2023/05/27 11:38:00;;;;;;;0.10;0.10;;;21.90;99.90;;;;;;5076241;28;20215;-81
2023/05/27 11:40:26;;;;;;;0.10;0.10;;;22.40;99.90;;;;;;5075524;28;20685;-82
2023/05/27 11:42:52;;;;;;;0.10;0.10;;;22.20;99.90;;;;;;5077171;28;20244;-81
2023/05/27 11:45:20;;;;;;;0.10;0.10;;;22.20;99.90;;;;;;5077661;28;20261;-81
2023/05/27 11:47:50;;;;;;;0.10;0.10;;;22.20;99.90;;;;;;5074939;28;20199;-81
2023/05/27 11:50:17;;;;;;;0.10;0.10;;;22.60;99.90;;;;;;5074432;28;20213;-82
2023/05/27 11:52:54;;;;;;;0.10;0.10;;;22.10;99.90;;;;;;5091442;28;20192;-82
2023/05/27 11:55:20;;;;;;;0.10;0.10;;;22.50;99.90;;;;;;5073483;28;20245;-81
2023/05/27 11:57:45;;;;;;;0.10;0.10;;;22.90;99.90;;;;;;5074074;28;20727;-82
2023/05/27 12:00:12;;;;;;;0.10;0.10;;;22.50;99.90;;;;;;5075751;28;20668;-81
2023/05/27 12:02:37;;;;;;;0.10;0.10;;;22.70;99.90;;;;;;5073451;28;20273;-81
2023/05/27 12:05:06;;;;;;;0.10;0.10;;;23.20;99.90;;;;;;5076061;28;20177;-82
2023/05/27 12:07:31;;;;;;;0.30;0.30;;;23.00;99.90;;;;;;5074502;28;20196;-82
2023/05/27 12:09:57;;;;;;;0.10;0.10;;;22.70;99.90;;;;;;5076473;28;20880;-82
2023/05/27 12:12:22;;;;;;;0.10;0.10;;;22.70;99.90;;;;;;5074282;28;20200;-82
2023/05/27 12:14:48;;;;;;;0.10;0.10;;;22.60;99.90;;;;;;5072581;28;20181;-82
2023/05/27 12:17:13;;;;;;;0.10;0.10;;;22.70;99.90;;;;;;5075070;28;20189;-81
2023/05/27 12:19:39;;;;;;;0.10;0.10;;;22.70;99.90;;;;;;5070578;28;20192;-82
2023/05/27 12:22:05;;;;;;;0.10;0.10;;;22.70;99.90;;;;;;5069216;28;20798;-83
2023/05/27 12:24:30;;;;;;;0.10;0.10;;;22.30;99.90;;;;;;5071336;28;20189;-82
2023/05/27 12:26:56;;;;;;;0.10;0.10;;;22.70;99.90;;;;;;5072097;28;20226;-82
2023/05/27 12:29:24;;;;;;;0.10;0.10;;;22.70;99.90;;;;;;5071268;28;20208;-81
2023/05/27 12:31:50;;;;;;;0.10;0.10;;;23.00;99.90;;;;;;5077945;28;20185;-82
2023/05/27 12:34:15;;;;;;;0.10;0.10;;;23.00;99.90;;;;;;5074033;28;20227;-82
2023/05/27 12:36:41;;;;;;;0.10;0.10;;;23.70;99.90;;;;;;5069652;28;20169;-82
2023/05/27 12:39:06;;;;;;;0.10;0.10;;;24.10;99.90;;;;;;5070064;28;20821;-81
2023/05/27 12:41:32;;;;;;;0.10;0.10;;;24.00;99.90;;;;;;5073723;28;20189;-81
2023/05/27 12:43:59;;;;;;;0.10;0.10;;;23.80;99.90;;;;;;5072400;28;20659;-82
2023/05/27 12:46:24;;;;;;;0.10;0.10;;;23.60;99.90;;;;;;5074086;28;20181;-82